Ukiah, CA

2:03 PM PDT on August 27, 2014 (GMT -0700)
Ukiah Municipal | Change Station
CLOSE
Current Station
Airport
Location: Ukiah,
Elevation: 614 ft
Nearby Weather Stations

Elev 614 ft 39.13 °N, 123.20 °W | Updated 7 minutes ago

Clear
Clear
96 °F
Feels Like 96 °F
N
9
Wind Variable Wind from SE

Today
High -- | Low -- °F
--% Chance of Precip.
Yesterday
High -- | Low -- °F
Precip. -- in
6:37 AM 7:50 PM
Waxing Crescent, 5% visible
Pressure 29.95 in
Visibility 10.0 miles
Clouds Clear
Dew Point 51 °F
Humidity 22%
Rainfall 0.00 in
Snow Depth Not available.
UV 10 out of 12
Pollen 8.60 out of 12
Air Quality Not available.
Flu Activity Not available.
METAR KUKI 272056Z AUTO 13008KT 10SM CLR 36/11 A2998 RMK AO2 SLP142 T03560106 58024

More Conditions Fewer Conditions

Pressure 29.95 in
Visibility 10.0 miles
Clouds Clear
Dew Point 51 °F
Humidity 22%
Rainfall 0.00 in
Snow Depth Not available.
UV 10 out of 12
Pollen 8.60 out of 12
Air Quality Not available.
Flu Activity Not available.
METAR KUKI 272056Z AUTO 13008KT 10SM CLR 36/11 A2998 RMK AO2 SLP142 T03560106 58024

More Conditions Fewer Conditions

10-Day Weather Forecast

Almanac

Astronomy

Aug. 27, 2014 Rise Set
Actual Time 6:37 AM PDT 7:50 PM PDT
Civil Twilight 6:09 AM PDT 8:18 PM PDT
Nautical Twilight 5:36 AM PDT 8:51 PM PDT
Astronomical Twilight 5:01 AM PDT 9:26 PM PDT
Moon 8:37 AM PDT 8:47 PM PDT
Length of Visible Light 14h 09m
Length of Day
13h 13m
Tomorrow will be 2m 25s shorter.
Waxing Crescent, 5% of the Moon is Illuminated
Today
Waxing Crescent
Sep 2
First Quarter
Sep 8
Full
Sep 15
Last Quarter
Sep 24
New

Today's Extremes

State Highs State Lows

Community

WunderPhotos

Upload Photos

1,747,785 photos uploaded!

Nearby

Snow Depth

Station Depth Elevation
CSS Lab 0 in 6900 ft
Rubicon #2 0 in 7500 ft
Fallen Leaf 0 in 6300 ft
Adin Mountain 0 in 6200 ft
Leavitt Lake 0 in 9400 ft

Earthquake Activity

City Distance Mag. Time & Date
Napa, California 78 miles 2.6 11:57 AM PDT
2014-08-27
The Geysers, California 31 miles 2.6 7:42 AM PDT
2014-08-27
Napa, California 78 miles 2.5 10:56 AM PDT
2014-08-26
Napa, California 78 miles 3.0 6:45 AM PDT
2014-08-26
Minimum magnitude displayed is 2.5.

Coastal Water Temperatures

Place Temperature
Arena Cove, CA 60.1 °F
North Spit, CA 57.9 °F
Point Reyes, CA 66.0 °F
San Francisco, CA 66.0 °F
Richmond, CA 68.0 °F

Nearby Weather Stations